Time;durP1;ratioP1;P1;durP2;ratioP2;P2;SDS_P1;SDS_P2;PMS_P1;PMS_P2;Temp;Humidity;BMP_temperature;BMP_pressure;BME280_temperature;BME280_humidity;BME280_pressure;Samples;Min_cycle;Max_cycle;Signal;HPM_P1;HPM_P2
2022/04/27 00:00:24;;;;;;;0.98;0.98;;;9.50;99.90;;;;;;5040860;28;20136;-79
2022/04/27 00:02:51;;;;;;;2.85;1.02;;;9.50;99.90;;;;;;5039699;28;20091;-79
2022/04/27 00:05:17;;;;;;;1.48;1.15;;;9.50;99.90;;;;;;5040318;28;20053;-79
2022/04/27 00:07:43;;;;;;;2.38;1.27;;;9.50;99.90;;;;;;5041901;28;20033;-80
2022/04/27 00:10:08;;;;;;;1.45;1.02;;;9.50;99.90;;;;;;5043613;28;20111;-80
2022/04/27 00:12:35;;;;;;;0.70;0.70;;;9.50;99.90;;;;;;5043809;28;20045;-79
2022/04/27 00:15:02;;;;;;;1.58;1.10;;;9.50;99.90;;;;;;5045239;28;20044;-80
2022/04/27 00:17:27;;;;;;;1.63;0.77;;;9.50;99.90;;;;;;5045348;28;20041;-79
2022/04/27 00:19:53;;;;;;;1.00;0.47;;;9.50;99.90;;;;;;5044835;28;20064;-80
2022/04/27 00:22:19;;;;;;;1.10;0.85;;;9.50;99.90;;;;;;5044955;28;20072;-80
2022/04/27 00:24:45;;;;;;;3.20;1.67;;;9.50;99.90;;;;;;5043968;28;20045;-79
2022/04/27 00:27:11;;;;;;;9.07;1.15;;;9.50;99.90;;;;;;5044653;28;20048;-79
2022/04/27 00:29:39;;;;;;;2.50;1.27;;;9.50;99.90;;;;;;5044724;28;20049;-79
2022/04/27 00:32:05;;;;;;;3.80;1.30;;;9.50;99.90;;;;;;5044481;28;20050;-79
2022/04/27 00:34:31;;;;;;;1.30;1.20;;;9.50;99.90;;;;;;5043337;28;20079;-80
2022/04/27 00:36:56;;;;;;;2.65;0.95;;;9.50;99.90;;;;;;5044779;28;20109;-79
2022/04/27 00:39:22;;;;;;;3.75;2.05;;;9.50;99.90;;;;;;5042143;28;20077;-80
2022/04/27 00:41:59;;;;;;;1.42;1.13;;;9.50;99.90;;;;;;5044690;28;20045;-79
2022/04/27 00:44:27;;;;;;;0.80;0.80;;;9.50;99.90;;;;;;5044758;28;20043;-80
2022/04/27 00:46:52;;;;;;;1.02;0.80;;;9.50;99.90;;;;;;5029154;28;20052;-79
2022/04/27 00:49:18;;;;;;;1.90;0.65;;;9.50;99.90;;;;;;5024347;28;20042;-80
2022/04/27 00:51:44;;;;;;;1.38;1.27;;;9.50;99.90;;;;;;5024726;28;20044;-79
2022/04/27 00:54:10;;;;;;;17.92;1.90;;;9.50;99.90;;;;;;5023530;28;20518;-80
2022/04/27 00:56:37;;;;;;;3.83;0.93;;;9.50;99.90;;;;;;5033622;28;20526;-80
2022/04/27 00:59:03;;;;;;;1.80;1.15;;;9.50;99.90;;;;;;5044283;28;20692;-79
2022/04/27 01:01:28;;;;;;;1.65;1.15;;;9.50;99.90;;;;;;5044673;28;20099;-80
2022/04/27 01:03:54;;;;;;;0.40;0.40;;;9.40;99.90;;;;;;5042801;28;20049;-79
2022/04/27 01:06:21;;;;;;;0.75;0.75;;;9.40;99.90;;;;;;5043427;28;20049;-80
2022/04/27 01:08:47;;;;;;;1.30;0.90;;;9.40;99.90;;;;;;5041632;28;20049;-79
2022/04/27 01:11:13;;;;;;;0.80;0.80;;;9.40;99.90;;;;;;5043782;28;20051;-80
2022/04/27 01:13:38;;;;;;;3.55;0.77;;;9.40;99.90;;;;;;5044441;28;20045;-79
2022/04/27 01:16:05;;;;;;;0.85;0.85;;;9.40;99.90;;;;;;5043536;28;20491;-79
2022/04/27 01:18:31;;;;;;;1.65;0.88;;;9.40;99.90;;;;;;5043921;28;20041;-79
2022/04/27 01:20:57;;;;;;;0.88;0.88;;;9.40;99.90;;;;;;5043146;28;20063;-79
2022/04/27 01:23:23;;;;;;;1.15;0.95;;;9.40;99.90;;;;;;5022147;28;20507;-80
2022/04/27 01:25:56;;;;;;;1.58;1.17;;;9.40;99.90;;;;;;5031711;28;20037;-79
2022/04/27 01:28:24;;;;;;;0.70;0.70;;;9.40;99.90;;;;;;5043597;28;20055;-79
2022/04/27 01:30:57;;;;;;;2.28;1.17;;;9.40;99.90;;;;;;5043716;28;20045;-79
2022/04/27 01:33:24;;;;;;;0.60;0.60;;;9.40;99.90;;;;;;5043602;28;20045;-80
2022/04/27 01:35:50;;;;;;;4.60;1.13;;;9.40;99.90;;;;;;5043538;28;20037;-79
2022/04/27 01:38:18;;;;;;;2.50;1.20;;;9.40;99.90;;;;;;5043241;28;20623;-79
2022/04/27 01:40:44;;;;;;;0.73;0.73;;;9.40;99.90;;;;;;5042327;28;20045;-80
2022/04/27 01:43:10;;;;;;;0.50;0.50;;;9.40;99.90;;;;;;5043122;28;20052;-79
2022/04/27 01:45:36;;;;;;;0.82;0.82;;;9.40;99.90;;;;;;5043139;28;20044;-80
2022/04/27 01:48:01;;;;;;;1.00;1.00;;;9.40;99.90;;;;;;5041719;28;20045;-80
2022/04/27 01:50:27;;;;;;;0.68;0.68;;;9.40;99.90;;;;;;5043951;28;20424;-80
2022/04/27 01:55:37;;;;;;;0.63;0.63;;;9.40;99.90;;;;;;5042538;28;20053;-80
2022/04/27 01:58:02;;;;;;;1.20;1.00;;;9.40;99.90;;;;;;5043072;28;20056;-79
2022/04/27 02:00:28;;;;;;;2.45;0.93;;;9.40;99.90;;;;;;5043728;28;20041;-80
2022/04/27 02:02:54;;;;;;;0.52;0.52;;;9.40;99.90;;;;;;5042498;28;20515;-80
2022/04/27 02:05:20;;;;;;;0.95;0.95;;;9.40;99.90;;;;;;5042582;28;20060;-79
2022/04/27 02:07:46;;;;;;;0.57;0.57;;;9.40;99.90;;;;;;5041593;28;20503;-79
2022/04/27 02:10:11;;;;;;;0.50;0.50;;;9.40;99.90;;;;;;5041765;28;20288;-80
2022/04/27 02:12:37;;;;;;;2.20;1.40;;;9.40;99.90;;;;;;5042992;28;20052;-80
2022/04/27 02:15:03;;;;;;;1.13;0.80;;;9.40;99.90;;;;;;5042880;28;20411;-80
2022/04/27 02:17:30;;;;;;;1.60;1.50;;;9.40;99.90;;;;;;5043153;28;20503;-79
2022/04/27 02:19:55;;;;;;;6.50;0.98;;;9.40;99.90;;;;;;5042687;28;20045;-80
2022/04/27 02:22:21;;;;;;;1.20;1.15;;;9.40;99.90;;;;;;5042339;28;20045;-80
2022/04/27 02:24:47;;;;;;;0.82;0.77;;;9.40;99.90;;;;;;5041561;28;20033;-79
2022/04/27 02:27:12;;;;;;;0.70;0.70;;;9.40;99.90;;;;;;5042388;28;20142;-80
2022/04/27 02:29:38;;;;;;;1.15;1.05;;;9.30;99.90;;;;;;5042888;28;20538;-80
2022/04/27 02:32:04;;;;;;;0.77;0.77;;;9.40;99.90;;;;;;5040746;28;20510;-79
2022/04/27 02:34:29;;;;;;;0.55;0.55;;;9.40;99.90;;;;;;5042549;28;20045;-80
2022/04/27 02:36:55;;;;;;;0.80;0.80;;;9.30;99.90;;;;;;5041040;28;20434;-80
2022/04/27 02:39:21;;;;;;;1.15;1.05;;;9.30;99.90;;;;;;5041073;28;20044;-80
2022/04/27 02:41:46;;;;;;;3.22;1.30;;;9.30;99.90;;;;;;5041895;28;20815;-80
2022/04/27 02:44:12;;;;;;;1.05;1.05;;;9.30;99.90;;;;;;5042313;28;20076;-79
2022/04/27 02:46:37;;;;;;;0.68;0.68;;;9.30;99.90;;;;;;5029093;28;20166;-79
2022/04/27 02:51:51;;;;;;;1.73;1.00;;;9.30;99.90;;;;;;5040776;28;20049;-79
2022/04/27 02:54:21;;;;;;;8.00;1.00;;;9.30;99.90;;;;;;5041066;28;20045;-80
2022/04/27 02:56:48;;;;;;;1.00;0.77;;;9.30;99.90;;;;;;5042344;28;20134;-80
2022/04/27 02:59:14;;;;;;;1.17;1.05;;;9.30;99.90;;;;;;5041729;28;20057;-80
2022/04/27 03:01:40;;;;;;;3.60;1.30;;;9.30;99.90;;;;;;5042068;28;20051;-80
2022/04/27 03:04:07;;;;;;;4.90;1.42;;;9.30;99.90;;;;;;5041173;28;20044;-79
2022/04/27 03:06:32;;;;;;;1.00;1.00;;;9.30;99.90;;;;;;5040132;28;20053;-80
2022/04/27 03:08:58;;;;;;;1.55;1.45;;;9.30;99.90;;;;;;5041221;28;20048;-79
2022/04/27 03:11:23;;;;;;;1.85;1.42;;;9.30;99.90;;;;;;5041670;28;20366;-80
2022/04/27 03:13:50;;;;;;;0.98;0.98;;;9.30;99.90;;;;;;5041347;28;20044;-80
2022/04/27 03:16:15;;;;;;;1.50;1.40;;;9.20;99.90;;;;;;5041288;28;20407;-80
2022/04/27 03:18:42;;;;;;;1.25;1.15;;;9.30;99.90;;;;;;5041860;28;20044;-79
2022/04/27 03:21:07;;;;;;;0.90;0.70;;;9.20;99.90;;;;;;5040224;28;20135;-79
2022/04/27 03:23:33;;;;;;;1.67;1.05;;;9.30;99.90;;;;;;5040379;28;20129;-80
2022/04/27 03:25:58;;;;;;;0.68;0.68;;;9.20;99.90;;;;;;5041649;28;20041;-80
2022/04/27 03:28:24;;;;;;;5.13;1.55;;;9.20;99.90;;;;;;5041446;28;20938;-79
2022/04/27 03:30:50;;;;;;;0.90;0.90;;;9.20;99.90;;;;;;5041736;28;20032;-80
2022/04/27 03:33:16;;;;;;;2.42;1.08;;;9.20;99.90;;;;;;5040450;28;20041;-80
2022/04/27 03:35:42;;;;;;;1.58;1.00;;;9.20;99.90;;;;;;5041682;28;20102;-80
2022/04/27 03:38:08;;;;;;;1.00;1.00;;;9.20;99.90;;;;;;5040890;28;20041;-78
2022/04/27 03:40:35;;;;;;;1.02;0.95;;;9.20;99.90;;;;;;5040774;28;20515;-79
2022/04/27 03:43:00;;;;;;;9.57;1.40;;;9.20;99.90;;;;;;5039943;28;20029;-80
2022/04/27 03:45:26;;;;;;;1.60;1.10;;;9.30;99.90;;;;;;5038008;28;20038;-80
2022/04/27 03:47:52;;;;;;;1.38;1.25;;;9.20;99.90;;;;;;5021617;28;20531;-79
2022/04/27 03:50:18;;;;;;;0.50;0.50;;;9.30;99.90;;;;;;5021293;28;20041;-80
2022/04/27 03:52:44;;;;;;;1.35;1.05;;;9.20;99.90;;;;;;5025009;28;20475;-80
2022/04/27 03:55:10;;;;;;;1.38;1.27;;;9.20;99.90;;;;;;5039737;28;20080;-80
2022/04/27 03:57:37;;;;;;;1.80;1.70;;;9.20;99.90;;;;;;5041141;28;20041;-80
2022/04/27 04:00:04;;;;;;;1.45;1.35;;;9.20;99.90;;;;;;5040765;28;20045;-80
2022/04/27 04:02:30;;;;;;;1.80;1.20;;;9.20;99.90;;;;;;5041660;28;20528;-79
2022/04/27 04:04:56;;;;;;;5.13;2.53;;;9.20;99.90;;;;;;5041101;28;20621;-79
2022/04/27 04:07:21;;;;;;;2.65;1.08;;;9.20;99.90;;;;;;5040816;28;20048;-80
2022/04/27 04:09:47;;;;;;;1.30;1.20;;;9.20;99.90;;;;;;5038832;28;20048;-79
2022/04/27 04:12:14;;;;;;;0.80;0.80;;;9.20;99.90;;;;;;5040541;28;20045;-80
2022/04/27 04:14:39;;;;;;;3.58;1.30;;;9.20;99.90;;;;;;5040599;28;20041;-80
2022/04/27 04:17:05;;;;;;;1.25;1.15;;;9.20;99.90;;;;;;5040500;28;20341;-80
2022/04/27 04:19:34;;;;;;;1.52;1.40;;;9.20;99.90;;;;;;5039318;28;20060;-80
2022/04/27 04:22:00;;;;;;;11.05;1.40;;;9.20;99.90;;;;;;5041463;28;20041;-80
2022/04/27 04:24:26;;;;;;;4.43;2.00;;;9.20;99.90;;;;;;5040185;28;20076;-80
2022/04/27 04:29:36;;;;;;;3.88;2.10;;;9.20;99.90;;;;;;5040811;28;20091;-80
2022/04/27 04:32:02;;;;;;;2.67;2.05;;;9.20;99.90;;;;;;5038861;28;20459;-81
2022/04/27 04:34:28;;;;;;;3.67;2.15;;;9.20;99.90;;;;;;5041195;28;20037;-80
2022/04/27 04:36:53;;;;;;;2.63;2.42;;;9.20;99.90;;;;;;5040792;28;20040;-80
2022/04/27 04:39:19;;;;;;;2.45;2.25;;;9.20;99.90;;;;;;5039377;28;20402;-80
2022/04/27 04:41:45;;;;;;;2.92;2.28;;;9.20;99.90;;;;;;5040892;28;20095;-80
2022/04/27 04:44:11;;;;;;;1.77;1.67;;;9.20;99.90;;;;;;5039917;28;20045;-80
2022/04/27 04:46:36;;;;;;;6.45;1.75;;;9.10;99.90;;;;;;5040395;28;20492;-80
2022/04/27 04:49:02;;;;;;;4.45;2.55;;;9.20;99.90;;;;;;5040637;28;20306;-80
2022/04/27 04:51:28;;;;;;;2.33;1.55;;;9.20;99.90;;;;;;5041109;28;20044;-80
2022/04/27 04:53:54;;;;;;;2.78;2.22;;;9.20;99.90;;;;;;5041015;28;20067;-80
2022/04/27 04:56:20;;;;;;;1.88;1.77;;;9.20;99.90;;;;;;5043821;28;20731;-80
2022/04/27 04:58:47;;;;;;;4.00;2.22;;;9.20;99.90;;;;;;5044153;28;20041;-80
2022/04/27 05:01:13;;;;;;;9.85;2.28;;;9.20;99.90;;;;;;5059043;28;20071;-80
2022/04/27 05:03:38;;;;;;;5.45;1.95;;;9.20;99.90;;;;;;5043649;28;20648;-80
2022/04/27 05:06:04;;;;;;;3.53;2.10;;;9.20;99.90;;;;;;5041696;28;20631;-80
2022/04/27 05:08:30;;;;;;;1.90;1.60;;;9.20;99.90;;;;;;5043540;28;20049;-79
2022/04/27 05:10:56;;;;;;;3.42;2.35;;;9.20;99.90;;;;;;5044069;28;20033;-79
2022/04/27 05:13:22;;;;;;;11.70;1.73;;;9.20;99.90;;;;;;5043705;28;20446;-80
2022/04/27 05:15:48;;;;;;;25.10;2.60;;;9.20;99.90;;;;;;5043671;28;20052;-80
2022/04/27 05:18:14;;;;;;;3.53;1.63;;;9.20;99.90;;;;;;5043161;28;20041;-80
2022/04/27 05:20:40;;;;;;;1.70;1.48;;;9.20;99.90;;;;;;5043880;28;20096;-80
2022/04/27 05:23:06;;;;;;;6.90;2.05;;;9.20;99.90;;;;;;5042618;28;20431;-80
2022/04/27 05:25:34;;;;;;;2.10;1.90;;;9.20;99.90;;;;;;5042193;28;20045;-80
2022/04/27 05:28:02;;;;;;;7.28;2.45;;;9.20;99.90;;;;;;5043847;28;20037;-80
2022/04/27 05:33:12;;;;;;;5.60;2.42;;;9.20;99.90;;;;;;5043201;28;20072;-80
2022/04/27 05:35:42;;;;;;;6.72;2.10;;;9.20;99.90;;;;;;5043443;28;20518;-80
2022/04/27 05:38:08;;;;;;;1.90;1.80;;;9.20;99.90;;;;;;5042291;28;20047;-80
2022/04/27 05:40:34;;;;;;;4.68;1.42;;;9.20;99.90;;;;;;5043229;28;20048;-79
2022/04/27 05:43:05;;;;;;;5.63;1.98;;;9.20;99.90;;;;;;5041602;28;20053;-79
2022/04/27 05:45:32;;;;;;;2.17;1.58;;;9.20;99.90;;;;;;5043226;28;20202;-79
2022/04/27 05:47:58;;;;;;;3.47;1.55;;;9.20;99.90;;;;;;5043639;28;20033;-80
2022/04/27 05:50:24;;;;;;;2.50;1.48;;;9.20;99.90;;;;;;5042734;28;20507;-80
2022/04/27 05:52:52;;;;;;;5.30;2.15;;;9.20;99.90;;;;;;5041165;28;20045;-80
2022/04/27 05:55:19;;;;;;;8.57;1.65;;;9.20;99.90;;;;;;5042511;28;20057;-80
2022/04/27 05:57:45;;;;;;;3.70;1.10;;;9.20;99.90;;;;;;5042698;28;20044;-80
2022/04/27 06:00:11;;;;;;;2.63;1.90;;;9.20;99.90;;;;;;5042895;28;20094;-80
2022/04/27 06:02:38;;;;;;;10.93;2.47;;;9.20;99.90;;;;;;5042900;28;20048;-79
2022/04/27 06:05:04;;;;;;;2.22;2.08;;;9.20;99.90;;;;;;5041754;28;20052;-79
2022/04/27 06:07:30;;;;;;;0.95;0.82;;;9.20;99.90;;;;;;5041514;28;20045;-80
2022/04/27 06:09:55;;;;;;;1.45;1.23;;;9.20;99.90;;;;;;5041142;28;20384;-79
2022/04/27 06:12:24;;;;;;;3.92;0.98;;;9.20;99.90;;;;;;5040711;28;20037;-80
2022/04/27 06:14:50;;;;;;;5.57;2.45;;;9.20;99.90;;;;;;5042879;28;20068;-80
2022/04/27 06:17:17;;;;;;;7.22;2.50;;;9.20;99.90;;;;;;5042745;28;20641;-79
2022/04/27 06:19:42;;;;;;;6.22;2.03;;;9.20;99.90;;;;;;5042938;28;20506;-80
2022/04/27 06:22:08;;;;;;;6.43;1.98;;;9.20;99.90;;;;;;5041794;28;20044;-80
2022/04/27 06:24:34;;;;;;;13.45;1.40;;;9.20;99.90;;;;;;5041227;28;20037;-79
2022/04/27 06:26:59;;;;;;;11.68;2.35;;;9.20;99.90;;;;;;5041691;28;20469;-80
2022/04/27 06:29:25;;;;;;;3.90;1.67;;;9.20;99.90;;;;;;5032389;28;20041;-80
2022/04/27 06:31:50;;;;;;;4.43;1.17;;;9.20;99.90;;;;;;5033440;28;20049;-80
2022/04/27 06:34:16;;;;;;;2.40;1.10;;;9.20;99.90;;;;;;5022406;28;20041;-80
2022/04/27 06:36:42;;;;;;;2.42;1.52;;;9.20;99.90;;;;;;5021204;28;20658;-80
2022/04/27 06:39:12;;;;;;;4.80;1.08;;;9.20;99.90;;;;;;5027508;28;20032;-80
2022/04/27 06:41:38;;;;;;;3.30;1.45;;;9.20;99.90;;;;;;5041813;28;20377;-80
2022/04/27 06:44:03;;;;;;;1.60;1.15;;;9.20;99.90;;;;;;5041991;28;20056;-79
2022/04/27 06:46:29;;;;;;;7.40;1.23;;;9.20;99.90;;;;;;5029153;28;20456;-80
2022/04/27 06:48:55;;;;;;;1.40;1.30;;;9.20;99.90;;;;;;5041326;28;20642;-79
2022/04/27 06:51:21;;;;;;;0.85;0.85;;;9.20;99.90;;;;;;5041222;28;20048;-79
2022/04/27 06:53:47;;;;;;;5.85;1.40;;;9.20;99.90;;;;;;5041279;28;20186;-78
2022/04/27 06:56:16;;;;;;;2.35;2.15;;;9.20;99.90;;;;;;5041573;28;20241;-79
2022/04/27 06:58:42;;;;;;;5.22;2.03;;;9.20;99.90;;;;;;5042102;28;20048;-79
2022/04/27 07:01:07;;;;;;;4.65;1.77;;;9.20;99.90;;;;;;5041793;28;20045;-78
2022/04/27 07:03:35;;;;;;;2.25;1.40;;;9.20;99.90;;;;;;5040940;28;20041;-78
2022/04/27 07:06:02;;;;;;;2.72;1.73;;;9.20;99.90;;;;;;5041050;28;20117;-79
2022/04/27 07:08:29;;;;;;;3.80;1.10;;;9.20;99.90;;;;;;5041386;28;20734;-79
2022/04/27 07:10:55;;;;;;;3.97;1.27;;;9.20;99.90;;;;;;5041404;28;20561;-79
2022/04/27 07:13:22;;;;;;;1.65;1.05;;;9.20;99.90;;;;;;5041448;28;20056;-79
2022/04/27 07:15:48;;;;;;;1.50;0.85;;;9.20;99.90;;;;;;5041300;28;20511;-78
2022/04/27 07:18:14;;;;;;;2.00;1.35;;;9.20;99.90;;;;;;5040136;28;20044;-78
2022/04/27 07:20:40;;;;;;;16.77;2.15;;;9.30;99.90;;;;;;5041164;28;20041;-78
2022/04/27 07:23:05;;;;;;;4.35;1.70;;;9.30;99.90;;;;;;5039013;28;20120;-78
2022/04/27 07:25:31;;;;;;;1.20;1.15;;;9.30;99.90;;;;;;5040757;28;20047;-78
2022/04/27 07:27:57;;;;;;;11.23;1.70;;;9.30;99.90;;;;;;5038081;28;20049;-79
2022/04/27 07:30:23;;;;;;;1.77;1.13;;;9.30;99.90;;;;;;5040110;28;20537;-80
2022/04/27 07:32:49;;;;;;;12.48;1.73;;;9.30;99.90;;;;;;5041661;28;20041;-80
2022/04/27 07:35:18;;;;;;;1.75;1.15;;;9.30;99.90;;;;;;5041589;28;20052;-80
2022/04/27 07:37:44;;;;;;;3.70;1.30;;;9.40;99.90;;;;;;5055927;28;20514;-77
2022/04/27 07:40:10;;;;;;;0.82;0.68;;;9.40;99.90;;;;;;5039453;28;20045;-84
2022/04/27 07:42:39;;;;;;;5.45;2.17;;;9.40;99.90;;;;;;5038296;28;20055;-83
2022/04/27 07:45:06;;;;;;;3.38;1.70;;;9.40;99.90;;;;;;5057351;28;20044;-90
2022/04/27 07:47:38;;;;;;;1.73;1.58;;;9.40;99.90;;;;;;5041852;28;20471;-83
2022/04/27 07:50:05;;;;;;;;;;;9.40;99.90;;;;;;5043457;28;20041;-86
2022/04/27 07:52:31;;;;;;;0.93;0.93;;;9.50;99.90;;;;;;5039891;28;19924;-84
2022/04/27 07:54:56;;;;;;;1.90;1.75;;;9.50;99.90;;;;;;5025172;28;20051;-80
2022/04/27 07:57:22;;;;;;;1.40;1.30;;;9.50;99.90;;;;;;5040773;28;20064;-78
2022/04/27 07:59:47;;;;;;;7.28;1.38;;;9.50;99.90;;;;;;5040826;28;20041;-84
2022/04/27 08:02:13;;;;;;;2.05;1.17;;;9.60;99.90;;;;;;5038707;28;20098;-82
2022/04/27 08:04:38;;;;;;;3.53;1.77;;;9.60;99.90;;;;;;5040768;28;20049;-82
2022/04/27 08:07:04;;;;;;;2.45;1.48;;;9.70;99.90;;;;;;5040876;28;20547;-81
2022/04/27 08:09:30;;;;;;;4.10;1.52;;;9.70;99.90;;;;;;5039997;28;20152;-82
2022/04/27 08:11:55;;;;;;;1.25;1.15;;;9.60;99.90;;;;;;5040772;28;20114;-81
2022/04/27 08:14:21;;;;;;;5.50;1.67;;;9.70;99.90;;;;;;5040148;28;20052;-82
2022/04/27 08:16:47;;;;;;;1.55;1.45;;;9.80;99.90;;;;;;5040158;28;20053;-81
2022/04/27 08:19:13;;;;;;;4.45;1.02;;;9.80;99.90;;;;;;5040465;28;20056;-80
2022/04/27 08:21:39;;;;;;;2.15;1.70;;;9.80;99.90;;;;;;5047268;28;20056;-81
2022/04/27 08:24:21;;;;;;;7.68;1.85;;;9.80;99.90;;;;;;5037101;28;20052;-92
2022/04/27 08:26:46;;;;;;;1.60;1.40;;;9.90;99.90;;;;;;5023755;28;20049;-85
2022/04/27 08:29:12;;;;;;;3.35;1.40;;;9.90;99.90;;;;;;5041294;28;20044;-90
2022/04/27 08:31:40;;;;;;;5.88;2.40;;;9.90;99.90;;;;;;5044267;28;20252;-94
2022/04/27 08:34:07;;;;;;;3.22;1.17;;;10.00;99.90;;;;;;5027577;28;20052;-89
2022/04/27 08:36:33;;;;;;;3.38;1.35;;;10.00;99.90;;;;;;5041553;28;20072;-88
2022/04/27 08:39:03;;;;;;;4.50;1.83;;;10.00;99.90;;;;;;5042077;28;20041;-89
2022/04/27 08:41:29;;;;;;;3.45;1.45;;;10.10;99.90;;;;;;5041492;28;20056;-87
2022/04/27 08:43:56;;;;;;;6.80;1.52;;;10.10;99.90;;;;;;5041550;28;20075;-89
2022/04/27 08:46:23;;;;;;;4.90;1.77;;;10.10;99.90;;;;;;5041191;28;20760;-88
2022/04/27 08:48:50;;;;;;;3.70;1.88;;;10.20;99.90;;;;;;5041892;28;20045;-88
2022/04/27 08:51:16;;;;;;;3.85;1.52;;;10.20;99.90;;;;;;5040464;28;20056;-89
2022/04/27 08:53:43;;;;;;;5.00;2.17;;;10.20;99.90;;;;;;5040450;28;20039;-90
2022/04/27 08:56:09;;;;;;;3.05;1.77;;;10.30;99.90;;;;;;5039323;28;20037;-87
2022/04/27 08:58:35;;;;;;;2.75;0.82;;;10.40;99.90;;;;;;5039156;28;20147;-87
2022/04/27 09:01:01;;;;;;;1.88;1.35;;;10.40;99.90;;;;;;5039935;28;20558;-87
2022/04/27 09:03:36;;;;;;;2.20;1.02;;;10.40;99.90;;;;;;5041359;28;20276;-88
2022/04/27 09:06:16;;;;;;;1.23;1.23;;;10.50;99.90;;;;;;5039625;28;20052;-89
2022/04/27 09:08:47;;;;;;;7.28;2.28;;;10.50;99.90;;;;;;5041062;28;20052;-88
2022/04/27 09:11:21;;;;;;;2.35;1.38;;;10.50;99.90;;;;;;5040557;28;20068;-87
2022/04/27 09:13:49;;;;;;;4.05;1.63;;;10.60;99.90;;;;;;5038682;28;20056;-88
2022/04/27 09:16:15;;;;;;;3.13;1.90;;;10.70;99.90;;;;;;5042317;28;20043;-89
2022/04/27 09:21:59;;;;;;;1.33;1.20;;;10.80;99.90;;;;;;5041455;28;20116;-89
2022/04/27 09:24:26;;;;;;;3.80;1.23;;;10.80;99.90;;;;;;5023498;28;20116;-87
2022/04/27 09:27:08;;;;;;;2.47;1.13;;;10.80;99.90;;;;;;5043199;28;20072;-88
2022/04/27 09:29:35;;;;;;;1.92;1.30;;;10.80;99.90;;;;;;5040297;28;20237;-88
2022/04/27 09:32:03;;;;;;;2.20;1.02;;;10.80;99.90;;;;;;5042389;28;20033;-88
2022/04/27 09:34:29;;;;;;;3.28;2.20;;;10.80;99.90;;;;;;5042102;28;20166;-89
2022/04/27 09:37:16;;;;;;;1.10;0.95;;;10.90;99.90;;;;;;5042950;28;20476;-88
2022/04/27 09:39:42;;;;;;;3.22;1.35;;;10.90;99.90;;;;;;5057303;28;20056;-88
2022/04/27 09:42:11;;;;;;;6.63;3.05;;;10.90;99.90;;;;;;5023600;28;20194;-88
2022/04/27 09:44:38;;;;;;;10.90;1.73;;;10.90;99.90;;;;;;5040970;28;20128;-89
2022/04/27 09:47:05;;;;;;;1.05;1.02;;;10.90;99.90;;;;;;5040705;28;20033;-89
2022/04/27 09:49:32;;;;;;;2.75;1.67;;;10.90;99.90;;;;;;5025170;28;20479;-87
2022/04/27 09:52:00;;;;;;;2.05;1.27;;;10.90;99.90;;;;;;5042527;28;20047;-86
2022/04/27 09:54:28;;;;;;;8.57;2.20;;;10.90;99.90;;;;;;5041633;28;20086;-88
2022/04/27 09:56:59;;;;;;;1.45;1.35;;;10.90;99.90;;;;;;5041779;28;20061;-79
2022/04/27 09:59:29;;;;;;;3.33;2.30;;;10.90;99.90;;;;;;5042825;28;20044;-81
2022/04/27 10:02:04;;;;;;;1.00;1.00;;;11.00;99.90;;;;;;5042565;28;20040;-85
2022/04/27 10:04:29;;;;;;;4.32;1.80;;;11.00;99.90;;;;;;5042592;28;20040;-88
2022/04/27 10:06:58;;;;;;;0.75;0.75;;;11.00;99.90;;;;;;5043667;28;20059;-88
2022/04/27 10:09:31;;;;;;;1.88;1.42;;;11.00;99.90;;;;;;5040259;28;20053;-85
2022/04/27 10:12:03;;;;;;;6.35;1.48;;;11.10;99.90;;;;;;5044420;28;20041;-85
2022/04/27 10:14:29;;;;;;;7.97;1.23;;;11.10;99.90;;;;;;5044262;28;20136;-85
2022/04/27 10:16:55;;;;;;;3.28;1.27;;;11.10;99.90;;;;;;5043937;28;20353;-85
2022/04/27 10:19:21;;;;;;;5.15;1.92;;;11.20;99.90;;;;;;5024750;28;20161;-85
2022/04/27 10:21:59;;;;;;;1.27;1.17;;;11.20;99.90;;;;;;5041525;28;20040;-84
2022/04/27 10:24:34;;;;;;;6.03;1.48;;;11.10;99.90;;;;;;5019819;28;20136;-85
2022/04/27 10:27:18;;;;;;;1.35;0.98;;;11.20;99.90;;;;;;5037648;28;20052;-85
2022/04/27 10:29:46;;;;;;;2.45;1.10;;;11.20;99.90;;;;;;5042981;28;20151;-86
2022/04/27 10:32:39;;;;;;;8.38;1.17;;;11.20;99.90;;;;;;5036843;28;20037;-87
2022/04/27 10:35:18;;;;;;;3.00;1.13;;;11.20;99.90;;;;;;5036926;28;20131;-86
2022/04/27 10:37:48;;;;;;;4.22;1.95;;;11.20;99.90;;;;;;5024533;28;20109;-88
2022/04/27 10:40:38;;;;;;;1.65;1.33;;;11.30;99.90;;;;;;5036632;28;20174;-87
2022/04/27 10:43:11;;;;;;;1.25;1.10;;;11.30;99.90;;;;;;5042185;28;20107;-87
2022/04/27 10:45:40;;;;;;;1.27;1.02;;;11.30;99.90;;;;;;5036353;28;20045;-86
2022/04/27 10:48:13;;;;;;;1.50;1.27;;;11.30;99.90;;;;;;5041626;28;20049;-85
2022/04/27 10:50:39;;;;;;;7.30;1.85;;;11.40;99.90;;;;;;5041872;28;20060;-81
2022/04/27 10:53:43;;;;;;;1.30;1.20;;;11.40;99.90;;;;;;5039302;28;20186;-84
2022/04/27 10:56:22;;;;;;;1.10;1.10;;;11.40;99.90;;;;;;5017158;28;20395;-83
2022/04/27 10:58:47;;;;;;;3.15;1.35;;;11.50;99.90;;;;;;5039412;28;20087;-83
2022/04/27 11:01:24;;;;;;;1.60;0.82;;;11.50;99.90;;;;;;5022196;28;20037;-83
2022/04/27 11:03:55;;;;;;;2.22;1.42;;;11.50;99.90;;;;;;5039032;28;20036;-84
2022/04/27 11:06:22;;;;;;;1.73;1.63;;;11.60;99.90;;;;;;5038800;28;20060;-84
2022/04/27 11:09:11;;;;;;;1.20;0.93;;;11.70;99.90;;;;;;5057374;28;20314;-83
2022/04/27 11:11:54;;;;;;;1.30;1.30;;;11.70;99.90;;;;;;5060556;28;20581;-83
2022/04/27 11:14:21;;;;;;;6.97;1.42;;;11.70;99.90;;;;;;5046251;28;20051;-82
2022/04/27 11:16:48;;;;;;;5.65;1.58;;;11.80;99.90;;;;;;5038799;28;20465;-81
2022/04/27 11:19:14;;;;;;;1.10;1.00;;;11.80;99.90;;;;;;5038537;28;20056;-79
2022/04/27 11:21:40;;;;;;;1.00;0.80;;;11.80;99.90;;;;;;5022633;28;20041;-82
2022/04/27 11:24:07;;;;;;;2.45;0.95;;;11.80;99.90;;;;;;5044011;28;20036;-83
2022/04/27 11:26:46;;;;;;;1.10;1.00;;;11.80;99.90;;;;;;5060203;28;20566;-82
2022/04/27 11:29:13;;;;;;;1.20;0.93;;;11.90;99.90;;;;;;5043470;28;20067;-79
2022/04/27 11:31:40;;;;;;;1.67;1.60;;;11.90;99.90;;;;;;5059692;28;20046;-80
2022/04/27 11:34:28;;;;;;;1.15;0.88;;;11.90;99.90;;;;;;5045215;28;20115;-81
2022/04/27 11:36:54;;;;;;;1.95;1.20;;;12.00;99.90;;;;;;5037597;28;20122;-82
2022/04/27 11:39:24;;;;;;;1.27;0.82;;;12.00;99.90;;;;;;5021086;28;20273;-80
2022/04/27 11:42:00;;;;;;;7.07;0.85;;;12.00;99.90;;;;;;5026000;28;20041;-80
2022/04/27 11:44:28;;;;;;;2.30;1.05;;;12.10;99.90;;;;;;5040580;28;20087;-80
2022/04/27 11:46:55;;;;;;;1.92;1.30;;;12.10;99.90;;;;;;5040299;28;20522;-80
2022/04/27 11:49:23;;;;;;;9.63;1.52;;;12.10;99.90;;;;;;5049368;28;20048;-80
2022/04/27 11:51:49;;;;;;;0.65;0.60;;;12.10;99.90;;;;;;5038639;28;20045;-80
2022/04/27 11:54:34;;;;;;;4.85;1.85;;;12.10;99.90;;;;;;5039879;28;20052;-80
2022/04/27 11:57:03;;;;;;;3.22;1.63;;;12.10;99.90;;;;;;5036204;28;20045;-79
2022/04/27 11:59:42;;;;;;;1.10;1.10;;;12.20;99.90;;;;;;5035948;28;20079;-80
2022/04/27 12:02:09;;;;;;;2.55;0.93;;;12.20;99.90;;;;;;5040154;28;20181;-80
2022/04/27 12:04:36;;;;;;;5.40;1.45;;;12.20;99.90;;;;;;5037703;28;20041;-80
2022/04/27 12:07:12;;;;;;;7.32;1.00;;;12.30;99.90;;;;;;5038950;28;20098;-80
2022/04/27 12:09:38;;;;;;;5.32;1.98;;;12.30;99.90;;;;;;5038829;28;20079;-80
2022/04/27 12:12:11;;;;;;;1.65;1.20;;;12.30;99.90;;;;;;5039808;28;20064;-80
2022/04/27 12:14:38;;;;;;;0.90;0.90;;;12.30;99.90;;;;;;5022280;28;20444;-79
2022/04/27 12:17:06;;;;;;;5.57;1.38;;;12.30;99.90;;;;;;5038831;28;20465;-81
2022/04/27 12:19:33;;;;;;;5.43;1.05;;;12.30;99.90;;;;;;5039999;28;20653;-81
2022/04/27 12:22:18;;;;;;;2.08;1.52;;;12.30;99.90;;;;;;5039860;28;20041;-80
2022/04/27 12:24:45;;;;;;;1.77;1.10;;;12.30;99.90;;;;;;5023143;28;20049;-80
2022/04/27 12:27:20;;;;;;;1.50;1.42;;;12.30;99.90;;;;;;5039774;28;20041;-81
2022/04/27 12:29:47;;;;;;;5.53;1.30;;;12.40;99.90;;;;;;5038249;28;20107;-81
2022/04/27 12:32:13;;;;;;;2.35;0.90;;;12.40;99.90;;;;;;5039858;28;20045;-81
2022/04/27 12:37:31;;;;;;;0.80;0.63;;;12.50;99.90;;;;;;5038596;28;20052;-81
2022/04/27 12:39:56;;;;;;;2.03;0.90;;;12.50;99.90;;;;;;5038481;28;20566;-80
2022/04/27 12:42:23;;;;;;;1.27;1.27;;;12.50;99.90;;;;;;5038418;28;20129;-81
2022/04/27 12:44:48;;;;;;;1.65;1.45;;;12.50;99.90;;;;;;5054790;28;20140;-80
2022/04/27 12:47:16;;;;;;;1.95;0.95;;;12.60;99.90;;;;;;5037763;28;20112;-80
2022/04/27 12:49:50;;;;;;;1.90;0.65;;;12.60;99.90;;;;;;5039400;28;20055;-81
2022/04/27 12:52:16;;;;;;;4.38;1.80;;;12.60;99.90;;;;;;5036419;28;20132;-80
2022/04/27 12:54:42;;;;;;;2.72;0.73;;;12.70;99.90;;;;;;5001958;28;20085;-78
2022/04/27 12:57:08;;;;;;;1.30;0.90;;;12.70;99.90;;;;;;5032060;28;20629;-78
2022/04/27 12:59:53;;;;;;;1.55;0.80;;;12.60;99.90;;;;;;5041155;28;20135;-78
2022/04/27 13:02:18;;;;;;;1.85;1.52;;;12.70;99.50;;;;;;5035226;28;20452;-78
2022/04/27 13:04:46;;;;;;;5.78;1.50;;;12.70;99.90;;;;;;5053297;28;20053;-78
2022/04/27 13:07:12;;;;;;;1.00;1.00;;;12.70;99.90;;;;;;5037961;28;20403;-78
2022/04/27 13:12:22;;;;;;;2.63;1.63;;;12.70;99.90;;;;;;5038684;28;20045;-78
2022/04/27 13:14:47;;;;;;;3.28;1.77;;;12.70;99.90;;;;;;5039527;28;20041;-79